createdAt,value
2019-01-30T00:04:24.105Z,96440.53
2019-01-30T00:06:34.935Z,96423.03
2019-01-30T00:08:45.739Z,96425.36
2019-01-30T00:10:56.569Z,96428.45
2019-01-30T00:13:07.463Z,96422.12
2019-01-30T00:15:18.374Z,96399.69
2019-01-30T00:17:29.193Z,96407.95
2019-01-30T00:19:39.986Z,96414.87
2019-01-30T00:21:50.827Z,96399.98
2019-01-30T00:24:01.634Z,96398.56
2019-01-30T00:26:12.641Z,96396.37
2019-01-30T00:28:23.546Z,96395.19
2019-01-30T00:30:34.370Z,96393.82
2019-01-30T00:32:45.283Z,96392.09
2019-01-30T00:34:56.072Z,96389.45
2019-01-30T00:37:06.877Z,96386.08
2019-01-30T00:39:17.689Z,96388.63
2019-01-30T00:41:28.479Z,96381.14
2019-01-30T00:43:39.301Z,96388.20
2019-01-30T00:45:50.091Z,96385.20
2019-01-30T00:48:00.930Z,96382.19
2019-01-30T00:50:53.387Z,96387.52
2019-01-30T00:53:04.310Z,96375.52
2019-01-30T00:55:15.281Z,96371.55
2019-01-30T00:57:26.142Z,96373.26
2019-01-30T00:59:36.974Z,96354.41
2019-01-30T01:01:47.840Z,96348.42
2019-01-30T01:03:58.656Z,96343.97
2019-01-30T01:06:09.447Z,96337.81
2019-01-30T01:08:20.261Z,96342.55
2019-01-30T01:10:31.109Z,96333.48
2019-01-30T01:12:41.904Z,96333.69
2019-01-30T01:14:52.718Z,96328.66
2019-01-30T01:17:03.706Z,96324.84
2019-01-30T01:19:14.572Z,96321.46
2019-01-30T01:21:25.386Z,96320.33
2019-01-30T01:23:36.177Z,96324.47
2019-01-30T01:25:47.004Z,96327.77
2019-01-30T01:27:57.894Z,96322.20
2019-01-30T01:30:28.681Z,96328.30
2019-01-30T01:32:39.585Z,96321.08
2019-01-30T01:34:50.436Z,96320.20
2019-01-30T01:37:01.210Z,96320.34
2019-01-30T01:39:12.013Z,96326.17
2019-01-30T01:41:22.827Z,96329.18
2019-01-30T01:43:33.647Z,96321.33
2019-01-30T01:45:44.472Z,96320.64
2019-01-30T01:47:55.275Z,96325.58
2019-01-30T01:50:47.734Z,96316.59
2019-01-30T01:52:58.536Z,96312.45
2019-01-30T01:55:51.004Z,96316.42
2019-01-30T01:58:01.812Z,96309.98
2019-01-30T02:00:35.519Z,96311.48
2019-01-30T02:02:45.287Z,96312.45
2019-01-30T02:04:56.087Z,96308.31
2019-01-30T02:07:06.897Z,96303.61
2019-01-30T02:09:17.706Z,96302.79
2019-01-30T02:11:28.516Z,96295.13
2019-01-30T02:13:39.305Z,96289.03
2019-01-30T02:15:50.122Z,96291.73
2019-01-30T02:18:01.058Z,96282.58
2019-01-30T02:20:53.504Z,96276.14
2019-01-30T02:23:04.444Z,96275.83
2019-01-30T02:25:15.336Z,96275.47
2019-01-30T02:27:26.159Z,96263.37
2019-01-30T02:29:36.967Z,96258.72
2019-01-30T02:31:47.788Z,96257.75
2019-01-30T02:33:58.690Z,96246.04
2019-01-30T02:36:09.501Z,96242.30
2019-01-30T02:38:20.426Z,96241.98
2019-01-30T02:40:31.231Z,96226.91
2019-01-30T02:42:42.200Z,96226.37
2019-01-30T02:47:45.476Z,96219.98
2019-01-30T02:49:56.324Z,96207.02
2019-01-30T02:52:07.110Z,96210.02
2019-01-30T02:54:17.939Z,96211.20
2019-01-30T02:56:28.740Z,96209.56
2019-01-30T02:58:39.567Z,96209.65
2019-01-30T03:00:58.917Z,96202.37
2019-01-30T03:03:03.400Z,96191.70
2019-01-30T03:05:14.190Z,96188.39
2019-01-30T03:07:25.011Z,96187.97
2019-01-30T03:09:35.888Z,96186.97
2019-01-30T03:11:46.788Z,96197.11
2019-01-30T03:13:57.608Z,96187.18
2019-01-30T03:16:08.398Z,96191.13
2019-01-30T03:18:19.205Z,96195.75
2019-01-30T03:20:30.030Z,96192.68
2019-01-30T03:22:40.845Z,96195.44
2019-01-30T03:24:51.661Z,96189.98
2019-01-30T03:27:02.552Z,96190.34
2019-01-30T03:29:13.360Z,96196.88
2019-01-30T03:31:24.181Z,96192.22
2019-01-30T03:33:34.976Z,96191.06
2019-01-30T03:35:45.815Z,96190.55
2019-01-30T03:37:56.683Z,96190.86
2019-01-30T03:40:49.165Z,96189.37
2019-01-30T03:42:59.974Z,96186.81
2019-01-30T03:45:52.437Z,96182.37
2019-01-30T03:48:03.328Z,96195.80
2019-01-30T03:50:14.331Z,96195.05
2019-01-30T03:52:25.141Z,96192.44
2019-01-30T03:54:35.948Z,96193.16
2019-01-30T03:56:46.770Z,96197.08
2019-01-30T03:58:57.562Z,96194.95
2019-01-30T04:01:08.391Z,96190.76
2019-01-30T04:03:19.237Z,96188.32
2019-01-30T04:05:30.025Z,96184.34
2019-01-30T04:07:40.839Z,96182.09
2019-01-30T04:10:33.302Z,96167.43
2019-01-30T04:12:44.345Z,96167.43
2019-01-30T04:14:55.136Z,96170.28
2019-01-30T04:17:05.943Z,96168.09
2019-01-30T04:19:16.734Z,96159.83
2019-01-30T04:21:27.635Z,96162.38
2019-01-30T04:23:38.453Z,96162.98
2019-01-30T04:25:49.365Z,96157.58
2019-01-30T04:28:00.178Z,96159.00
2019-01-30T04:30:30.841Z,96159.94
2019-01-30T04:32:41.673Z,96155.13
2019-01-30T04:34:52.469Z,96154.17
2019-01-30T04:37:03.354Z,96154.72
2019-01-30T04:39:14.177Z,96149.14
2019-01-30T04:41:24.966Z,96147.98
2019-01-30T04:43:35.776Z,96154.52
2019-01-30T04:45:46.562Z,96144.20
2019-01-30T04:47:57.415Z,96132.20
2019-01-30T04:50:49.869Z,96124.45
2019-01-30T04:53:00.687Z,96120.94
2019-01-30T04:55:11.723Z,96125.67
2019-01-30T04:57:22.471Z,96118.94
2019-01-30T04:59:33.297Z,96123.42
2019-01-30T05:01:49.587Z,96114.80
2019-01-30T05:03:56.828Z,96122.11
2019-01-30T05:06:07.718Z,96120.61
2019-01-30T05:08:18.514Z,96126.75
2019-01-30T05:10:29.339Z,96127.21
2019-01-30T05:12:40.131Z,96137.06
2019-01-30T05:14:51.059Z,96133.98
2019-01-30T05:17:01.859Z,96140.84
2019-01-30T05:21:43.141Z,96142.56
2019-01-30T05:23:54.057Z,96127.73
2019-01-30T05:26:04.866Z,96139.59
2019-01-30T05:28:15.664Z,96146.94
2019-01-30T05:31:08.141Z,96147.20
2019-01-30T05:33:18.955Z,96143.83
2019-01-30T05:35:29.771Z,96130.23
2019-01-30T05:37:40.579Z,96129.62
2019-01-30T05:39:51.384Z,96119.86
2019-01-30T05:42:02.220Z,96110.27
2019-01-30T05:44:13.021Z,96102.23
2019-01-30T05:46:23.841Z,96093.98
2019-01-30T05:48:34.633Z,96099.71
2019-01-30T05:50:45.479Z,96104.56
2019-01-30T05:52:56.278Z,96100.11
2019-01-30T05:55:48.796Z,96094.31
2019-01-30T05:57:59.596Z,96084.94
2019-01-30T06:00:52.057Z,96089.39
2019-01-30T06:03:03.077Z,96082.45
2019-01-30T06:05:13.990Z,96091.19
2019-01-30T06:07:24.875Z,96084.86
2019-01-30T06:09:35.680Z,96089.42
2019-01-30T06:11:46.514Z,96082.31
2019-01-30T06:13:57.321Z,96084.47
2019-01-30T06:16:08.115Z,96084.81
2019-01-30T06:18:18.926Z,96087.27
2019-01-30T06:20:29.823Z,96079.54
2019-01-30T06:22:40.672Z,96078.30
2019-01-30T06:24:51.548Z,96078.66
2019-01-30T06:27:02.357Z,96079.97
2019-01-30T06:29:13.148Z,96079.67
2019-01-30T06:31:23.951Z,96085.70
2019-01-30T06:33:34.869Z,96073.09
2019-01-30T06:35:45.670Z,96082.42
2019-01-30T06:37:56.481Z,96086.28
2019-01-30T06:40:28.251Z,96081.37
2019-01-30T06:42:39.080Z,96084.94
2019-01-30T06:44:49.982Z,96095.03
2019-01-30T06:47:00.757Z,96091.10
2019-01-30T06:49:11.633Z,96086.55
2019-01-30T06:51:22.448Z,96097.45
2019-01-30T06:53:33.367Z,96087.52
2019-01-30T06:55:44.153Z,96096.20
2019-01-30T06:57:54.973Z,96096.75
2019-01-30T07:00:25.660Z,96102.05
2019-01-30T07:02:36.478Z,96098.87
2019-01-30T07:04:47.419Z,96104.56
2019-01-30T07:06:58.222Z,96102.83
2019-01-30T07:09:09.176Z,96109.51
2019-01-30T07:11:19.961Z,96109.51
2019-01-30T07:13:30.772Z,96112.25
2019-01-30T07:15:41.581Z,96109.53
2019-01-30T07:18:14.216Z,96108.80
2019-01-30T07:20:25.136Z,96112.19
2019-01-30T07:22:36.046Z,96113.23
2019-01-30T07:24:46.868Z,96118.44
2019-01-30T07:26:57.768Z,96117.98
2019-01-30T07:29:08.582Z,96117.26
2019-01-30T07:31:19.411Z,96114.41
2019-01-30T07:33:30.259Z,96121.17
2019-01-30T07:35:41.080Z,96120.08
2019-01-30T07:37:51.980Z,96124.31
2019-01-30T07:40:44.437Z,96121.12
2019-01-30T07:42:55.252Z,96124.33
2019-01-30T07:45:47.736Z,96116.94
2019-01-30T07:47:58.531Z,96124.69
2019-01-30T07:50:51.014Z,96126.12
2019-01-30T07:53:01.813Z,96130.70
2019-01-30T07:55:54.278Z,96139.20
2019-01-30T07:58:05.934Z,96138.22
2019-01-30T08:00:59.446Z,96132.34
2019-01-30T08:03:10.255Z,96131.96
2019-01-30T08:05:22.717Z,96126.23
2019-01-30T08:07:34.014Z,96131.67
2019-01-30T08:09:44.842Z,96124.77
2019-01-30T08:11:55.685Z,96132.19
2019-01-30T08:14:06.476Z,96136.91
2019-01-30T08:16:17.305Z,96128.14
2019-01-30T08:18:28.212Z,96137.98
2019-01-30T08:20:39.231Z,96141.63
2019-01-30T08:22:50.150Z,96137.77
2019-01-30T08:25:01.214Z,96134.67
2019-01-30T08:27:13.849Z,96136.59
2019-01-30T08:29:24.916Z,96140.50
2019-01-30T08:31:37.470Z,96140.72
2019-01-30T08:33:48.312Z,96140.29
2019-01-30T08:35:59.235Z,96134.94
2019-01-30T08:38:10.069Z,96133.73
2019-01-30T08:40:20.867Z,96143.73
2019-01-30T08:42:31.670Z,96148.83
2019-01-30T08:44:46.995Z,96151.59
2019-01-30T08:46:55.286Z,96149.99
2019-01-30T08:49:06.247Z,96151.78
2019-01-30T08:51:17.194Z,96152.60
2019-01-30T08:53:28.022Z,96155.12
2019-01-30T08:55:38.802Z,96158.69
2019-01-30T08:57:49.729Z,96160.59
2019-01-30T09:00:00.532Z,96156.55
2019-01-30T09:02:11.338Z,96164.67
2019-01-30T09:04:22.161Z,96164.09
2019-01-30T09:06:32.959Z,96161.94
2019-01-30T09:08:43.774Z,96167.96
2019-01-30T09:10:54.573Z,96169.95
2019-01-30T09:13:05.394Z,96172.23
2019-01-30T09:15:57.839Z,96173.34
2019-01-30T09:18:08.794Z,96174.51
2019-01-30T09:21:01.265Z,96176.64
2019-01-30T09:23:12.108Z,96168.94
2019-01-30T09:26:04.587Z,96175.71
2019-01-30T09:28:15.455Z,96177.93
2019-01-30T09:30:48.049Z,96178.43
2019-01-30T09:32:59.143Z,96172.67
2019-01-30T09:35:51.643Z,96182.69
2019-01-30T09:38:02.531Z,96179.41
2019-01-30T09:40:55.004Z,96179.41
2019-01-30T09:43:05.896Z,96184.44
2019-01-30T09:45:58.407Z,96194.98
2019-01-30T09:48:09.237Z,96195.80
2019-01-30T09:50:39.921Z,96199.72
2019-01-30T09:53:32.401Z,96200.88
2019-01-30T09:55:43.335Z,96195.13
2019-01-30T09:57:54.185Z,96196.30
2019-01-30T10:00:46.660Z,96199.86
2019-01-30T10:02:57.456Z,96215.31
2019-01-30T10:05:49.931Z,96224.92
2019-01-30T10:08:00.725Z,96223.44
2019-01-30T10:10:51.348Z,96219.17
2019-01-30T10:13:43.800Z,96215.67
2019-01-30T10:15:54.721Z,96209.86
2019-01-30T10:18:05.629Z,96221.83
2019-01-30T10:20:58.112Z,96225.63
2019-01-30T10:23:09.022Z,96218.13
2019-01-30T10:25:19.830Z,96223.39
2019-01-30T10:27:30.651Z,96229.63
2019-01-30T10:29:41.470Z,96228.28
2019-01-30T10:31:52.291Z,96220.76
2019-01-30T10:34:03.205Z,96217.27
2019-01-30T10:36:14.019Z,96217.61
2019-01-30T10:38:24.828Z,96225.06
2019-01-30T10:40:35.756Z,96229.16
2019-01-30T10:43:28.443Z,96220.53
2019-01-30T10:45:39.377Z,96221.60
2019-01-30T10:47:50.297Z,96215.20
2019-01-30T10:50:01.290Z,96214.36
2019-01-30T10:52:12.119Z,96216.92
2019-01-30T10:54:22.917Z,96224.44
2019-01-30T10:56:33.743Z,96225.70
2019-01-30T10:58:44.563Z,96220.43
2019-01-30T11:00:55.459Z,96211.67
2019-01-30T11:03:06.302Z,96223.05
2019-01-30T11:05:17.202Z,96223.86
2019-01-30T11:07:28.001Z,96222.31
2019-01-30T11:09:38.792Z,96235.34
2019-01-30T11:11:49.635Z,96232.17
2019-01-30T11:14:00.451Z,96225.23
2019-01-30T11:16:11.249Z,96224.38
2019-01-30T11:18:22.192Z,96224.81
2019-01-30T11:20:33.125Z,96226.16
2019-01-30T11:23:25.605Z,96228.25
2019-01-30T11:26:18.081Z,96222.77
2019-01-30T11:28:28.956Z,96226.03
2019-01-30T11:30:39.758Z,96229.50
2019-01-30T11:32:50.662Z,96242.72
2019-01-30T11:35:01.601Z,96232.42
2019-01-30T11:37:12.394Z,96237.44
2019-01-30T11:39:23.201Z,96234.81
2019-01-30T11:41:34.036Z,96234.68
2019-01-30T11:43:44.846Z,96236.22
2019-01-30T11:45:55.652Z,96233.30
2019-01-30T11:48:06.562Z,96234.59
2019-01-30T11:50:17.615Z,96238.33
2019-01-30T11:52:28.519Z,96245.70
2019-01-30T11:54:39.393Z,96250.25
2019-01-30T11:56:50.207Z,96252.81
2019-01-30T11:59:01.032Z,96253.89
2019-01-30T12:01:11.875Z,96254.06
2019-01-30T12:03:22.661Z,96258.45
2019-01-30T12:05:33.589Z,96263.05
2019-01-30T12:07:44.440Z,96260.42
2019-01-30T12:09:55.965Z,96261.78
2019-01-30T12:12:07.986Z,96264.30
2019-01-30T12:14:18.785Z,96269.42
2019-01-30T12:16:29.595Z,96272.55
2019-01-30T12:18:40.393Z,96280.03
2019-01-30T12:20:51.964Z,96277.48
2019-01-30T12:23:04.232Z,96271.06
2019-01-30T12:25:56.707Z,96265.36
2019-01-30T12:28:07.625Z,96281.31
2019-01-30T12:31:00.085Z,96272.17
2019-01-30T12:33:10.946Z,96272.11
2019-01-30T12:36:03.406Z,96273.52
2019-01-30T12:38:14.325Z,96277.40
2019-01-30T12:40:25.111Z,96286.78
2019-01-30T12:42:35.997Z,96272.26
2019-01-30T12:44:46.892Z,96276.03
2019-01-30T12:46:57.691Z,96291.19
2019-01-30T12:49:08.504Z,96292.27
2019-01-30T12:51:19.456Z,96296.89
2019-01-30T12:53:30.249Z,96294.16
2019-01-30T12:55:41.067Z,96297.13
2019-01-30T12:57:51.870Z,96301.12
2019-01-30T13:00:24.451Z,96303.50
2019-01-30T13:02:35.399Z,96319.89
2019-01-30T13:04:46.236Z,96307.59
2019-01-30T13:06:57.041Z,96311.89
2019-01-30T13:09:07.967Z,96312.41
2019-01-30T13:11:18.779Z,96314.66
2019-01-30T13:13:29.616Z,96320.16
2019-01-30T13:15:40.430Z,96310.19
2019-01-30T13:17:51.267Z,96320.75
2019-01-30T13:22:40.153Z,96323.76
2019-01-30T13:24:50.989Z,96322.88
2019-01-30T13:27:01.787Z,96322.78
2019-01-30T13:29:12.603Z,96337.67
2019-01-30T13:31:23.402Z,96339.89
2019-01-30T13:33:34.227Z,96340.36
2019-01-30T13:35:45.219Z,96349.55
2019-01-30T13:37:56.026Z,96348.59
2019-01-30T13:40:46.589Z,96341.77
2019-01-30T13:42:57.380Z,96348.94
2019-01-30T13:45:49.870Z,96351.66
2019-01-30T13:48:00.939Z,96357.84
2019-01-30T13:50:53.386Z,96360.92
2019-01-30T13:53:04.369Z,96361.34
2019-01-30T13:55:15.395Z,96365.53
2019-01-30T13:57:26.207Z,96352.81
2019-01-30T13:59:37.058Z,96359.91
2019-01-30T14:01:47.944Z,96367.30
2019-01-30T14:03:58.772Z,96371.98
2019-01-30T14:06:09.599Z,96366.28
2019-01-30T14:08:20.508Z,96366.80
2019-01-30T14:12:48.671Z,96377.48
2019-01-30T14:14:59.477Z,96372.30
2019-01-30T14:17:10.301Z,96379.43
2019-01-30T14:19:21.237Z,96372.92
2019-01-30T14:21:32.043Z,96389.02
2019-01-30T14:23:42.906Z,96392.20
2019-01-30T14:25:53.724Z,96390.26
2019-01-30T14:28:04.519Z,96391.11
2019-01-30T14:30:35.337Z,96393.49
2019-01-30T14:32:46.125Z,96406.39
2019-01-30T14:34:56.930Z,96405.77
2019-01-30T14:37:07.762Z,96419.36
2019-01-30T14:39:18.579Z,96429.33
2019-01-30T14:41:29.442Z,96437.77
2019-01-30T14:43:40.228Z,96427.77
2019-01-30T14:45:51.056Z,96438.87
2019-01-30T14:48:01.972Z,96439.06
2019-01-30T14:50:54.427Z,96446.34
2019-01-30T14:53:05.221Z,96446.72
2019-01-30T14:55:57.704Z,96461.59
2019-01-30T14:58:50.166Z,96456.20
2019-01-30T15:01:00.961Z,96466.06
2019-01-30T15:03:31.692Z,96479.02
2019-01-30T15:05:42.648Z,96479.02
2019-01-30T15:07:53.537Z,96486.08
2019-01-30T15:10:45.935Z,96494.53
2019-01-30T15:13:38.418Z,96496.36
2019-01-30T15:15:49.236Z,96493.45
2019-01-30T15:18:00.176Z,96489.70
2019-01-30T15:20:52.709Z,96496.95
2019-01-30T15:23:45.134Z,96499.97
2019-01-30T15:25:55.976Z,96505.93
2019-01-30T15:28:06.929Z,96497.02
2019-01-30T15:30:39.510Z,96509.21
2019-01-30T15:33:32.002Z,96523.50
2019-01-30T15:35:42.805Z,96518.36
2019-01-30T15:37:53.628Z,96527.34
2019-01-30T15:40:25.236Z,96530.35
2019-01-30T15:42:36.064Z,96533.00
2019-01-30T15:44:47.007Z,96539.04
2019-01-30T15:46:57.909Z,96539.11
2019-01-30T15:49:08.726Z,96540.33
2019-01-30T15:51:19.535Z,96543.32
2019-01-30T15:53:30.470Z,96547.37
2019-01-30T15:56:22.933Z,96550.10
2019-01-30T15:58:33.768Z,96551.28
2019-01-30T16:01:26.228Z,96552.19
2019-01-30T16:03:37.046Z,96550.41
2019-01-30T16:05:47.944Z,96559.95
2019-01-30T16:07:58.763Z,96558.41
2019-01-30T16:10:51.237Z,96556.00
2019-01-30T16:13:02.246Z,96561.59
2019-01-30T16:15:54.731Z,96562.72
2019-01-30T16:20:58.022Z,96570.28
2019-01-30T16:23:08.804Z,96575.20
2019-01-30T16:25:19.670Z,96578.85
2019-01-30T16:27:30.484Z,96573.86
2019-01-30T16:29:41.302Z,96587.95
2019-01-30T16:31:52.096Z,96594.77
2019-01-30T16:34:03.200Z,96598.97
2019-01-30T16:36:14.012Z,96600.25
2019-01-30T16:38:24.829Z,96607.94
2019-01-30T16:40:35.762Z,96613.89
2019-01-30T16:42:46.559Z,96616.62
2019-01-30T16:44:57.413Z,96624.80
2019-01-30T16:47:08.318Z,96627.80
2019-01-30T16:49:19.156Z,96632.33
2019-01-30T16:51:30.101Z,96629.86
2019-01-30T16:53:41.010Z,96637.09
2019-01-30T16:55:51.860Z,96640.80
2019-01-30T16:58:44.300Z,96644.87
2019-01-30T17:00:55.267Z,96643.72
2019-01-30T17:03:47.713Z,96647.27
2019-01-30T17:06:07.006Z,96656.77
2019-01-30T17:08:11.243Z,96663.73
2019-01-30T17:10:22.145Z,96661.84
2019-01-30T17:12:32.972Z,96665.33
2019-01-30T17:14:43.785Z,96669.67
2019-01-30T17:16:54.596Z,96670.20
2019-01-30T17:19:05.432Z,96665.92
2019-01-30T17:21:16.287Z,96669.77
2019-01-30T17:23:27.110Z,96675.21
2019-01-30T17:25:38.073Z,96684.12
2019-01-30T17:27:48.928Z,96693.41
2019-01-30T17:29:59.744Z,96690.64
2019-01-30T17:32:10.584Z,96691.92
2019-01-30T17:35:03.017Z,96688.64
2019-01-30T17:37:13.844Z,96700.18
2019-01-30T17:39:24.653Z,96695.05
2019-01-30T17:41:35.590Z,96703.66
2019-01-30T17:43:46.425Z,96713.20
2019-01-30T17:45:57.252Z,96710.21
2019-01-30T17:48:49.761Z,96721.14
2019-01-30T17:51:00.576Z,96724.73
2019-01-30T17:53:11.447Z,96730.05
2019-01-30T17:55:22.262Z,96730.63
2019-01-30T17:57:33.074Z,96733.95
2019-01-30T17:59:43.886Z,96735.23
2019-01-30T18:01:54.793Z,96740.62
2019-01-30T18:04:05.716Z,96742.42
2019-01-30T18:06:16.518Z,96744.92
2019-01-30T18:08:27.511Z,96744.41
2019-01-30T18:10:38.316Z,96754.11
2019-01-30T18:12:49.250Z,96754.66
2019-01-30T18:15:00.139Z,96760.70
2019-01-30T18:17:10.984Z,96760.91
2019-01-30T18:19:21.822Z,96761.37
2019-01-30T18:21:32.648Z,96761.98
2019-01-30T18:23:43.547Z,96769.42
2019-01-30T18:25:54.582Z,96762.47
2019-01-30T18:28:05.610Z,96758.16
2019-01-30T18:30:58.083Z,96767.65
2019-01-30T18:33:08.920Z,96774.97
2019-01-30T18:35:19.799Z,96773.01
2019-01-30T18:37:30.614Z,96778.98
2019-01-30T18:39:41.504Z,96781.70
2019-01-30T18:41:52.273Z,96783.03
2019-01-30T18:44:03.206Z,96785.74
2019-01-30T18:46:14.153Z,96793.82
2019-01-30T18:48:24.950Z,96786.05
2019-01-30T18:50:35.927Z,96800.45
2019-01-30T18:52:46.867Z,96788.83
2019-01-30T18:54:57.760Z,96796.97
2019-01-30T18:57:08.605Z,96792.08
2019-01-30T18:59:19.418Z,96797.58
2019-01-30T19:01:30.311Z,96790.11
2019-01-30T19:03:41.175Z,96795.91
2019-01-30T19:05:52.032Z,96798.95
2019-01-30T19:08:44.480Z,96802.17
2019-01-30T19:10:55.428Z,96802.94
2019-01-30T19:13:06.262Z,96806.41
2019-01-30T19:15:58.774Z,96806.09
2019-01-30T19:18:51.227Z,96805.64
2019-01-30T19:21:02.147Z,96810.39
2019-01-30T19:23:13.115Z,96801.89
2019-01-30T19:25:24.081Z,96795.17
2019-01-30T19:27:34.940Z,96801.03
2019-01-30T19:29:45.736Z,96790.11
2019-01-30T19:31:56.567Z,96786.95
2019-01-30T19:34:07.390Z,96783.80
2019-01-30T19:36:18.275Z,96784.48
2019-01-30T19:38:29.102Z,96787.11
2019-01-30T19:40:40.106Z,96785.09
2019-01-30T19:42:51.170Z,96786.34
2019-01-30T19:45:43.626Z,96788.91
2019-01-30T19:48:36.162Z,96789.22
2019-01-30T19:50:47.069Z,96793.71
2019-01-30T19:53:39.650Z,96794.55
2019-01-30T19:55:50.447Z,96799.20
2019-01-30T19:58:01.391Z,96798.38
2019-01-30T20:00:53.858Z,96795.37
2019-01-30T20:05:44.199Z,96805.74
2019-01-30T20:07:55.112Z,96803.64
2019-01-30T20:10:47.577Z,96799.44
2019-01-30T20:12:58.507Z,96805.69
2019-01-30T20:15:50.967Z,96809.08
2019-01-30T20:18:03.275Z,96810.72
2019-01-30T20:20:55.684Z,96810.27
2019-01-30T20:23:06.806Z,96805.60
2019-01-30T20:25:59.294Z,96804.61
2019-01-30T20:28:10.153Z,96807.08
2019-01-30T20:31:02.820Z,96807.94
2019-01-30T20:33:13.636Z,96810.03
2019-01-30T20:35:24.695Z,96809.27
2019-01-30T20:37:37.733Z,96815.52
2019-01-30T20:39:48.748Z,96814.70
2019-01-30T20:41:59.560Z,96813.38
2019-01-30T20:44:10.403Z,96820.77
2019-01-30T20:46:21.256Z,96819.04
2019-01-30T20:48:32.438Z,96815.12
2019-01-30T20:53:14.059Z,96826.53
2019-01-30T20:56:06.547Z,96835.48
2019-01-30T20:58:17.373Z,96829.17
2019-01-30T21:01:09.878Z,96832.78
2019-01-30T21:03:20.680Z,96830.22
2019-01-30T21:05:31.570Z,96828.95
2019-01-30T21:07:42.398Z,96832.38
2019-01-30T21:09:53.340Z,96832.38
2019-01-30T21:12:04.246Z,96837.39
2019-01-30T21:14:15.058Z,96837.72
2019-01-30T21:16:25.887Z,96836.89
2019-01-30T21:18:36.692Z,96830.86
2019-01-30T21:20:47.550Z,96835.27
2019-01-30T21:22:58.377Z,96835.17
2019-01-30T21:25:29.120Z,96834.11
2019-01-30T21:27:40.084Z,96832.23
2019-01-30T21:29:50.855Z,96825.69
2019-01-30T21:32:01.685Z,96825.69
2019-01-30T21:34:12.483Z,96831.20
2019-01-30T21:36:23.311Z,96832.16
2019-01-30T21:38:34.255Z,96826.59
2019-01-30T21:40:45.056Z,96823.29
2019-01-30T21:42:56.000Z,96826.11
2019-01-30T21:45:48.428Z,96827.31
2019-01-30T21:47:59.351Z,96825.98
2019-01-30T21:50:51.798Z,96824.06
2019-01-30T21:55:42.016Z,96820.13
2019-01-30T21:57:52.841Z,96820.70
2019-01-30T22:00:45.290Z,96820.25
2019-01-30T22:02:56.219Z,96819.83
2019-01-30T22:05:07.230Z,96821.50
2019-01-30T22:07:18.016Z,96820.03
2019-01-30T22:09:28.863Z,96812.69
2019-01-30T22:14:12.050Z,96813.46
2019-01-30T22:16:22.947Z,96804.19
2019-01-30T22:18:33.776Z,96809.30
2019-01-30T22:20:44.582Z,96808.53
2019-01-30T22:22:55.508Z,96811.66
2019-01-30T22:25:48.001Z,96809.33
2019-01-30T22:27:58.834Z,96811.19
2019-01-30T22:30:51.350Z,96814.77
2019-01-30T22:33:43.817Z,96818.65
2019-01-30T22:35:54.725Z,96814.13
2019-01-30T22:38:12.625Z,96811.40
2019-01-30T22:40:18.385Z,96807.57
2019-01-30T22:42:29.207Z,96810.33
2019-01-30T22:44:40.034Z,96812.19
2019-01-30T22:46:50.815Z,96809.23
2019-01-30T22:49:01.646Z,96805.80
2019-01-30T22:51:12.451Z,96806.55
2019-01-30T22:53:23.246Z,96802.72
2019-01-30T22:55:53.989Z,96804.77
2019-01-30T22:58:04.911Z,96790.64
2019-01-30T23:00:57.362Z,96794.92
2019-01-30T23:03:08.262Z,96800.03
2019-01-30T23:06:00.725Z,96804.12
2019-01-30T23:08:53.164Z,96798.14
2019-01-30T23:11:43.724Z,96794.19
2019-01-30T23:13:54.532Z,96794.89
2019-01-30T23:16:45.165Z,96797.11
2019-01-30T23:19:37.602Z,96799.09
2019-01-30T23:22:28.153Z,96794.26
2019-01-30T23:25:18.754Z,96789.52
2019-01-30T23:28:11.238Z,96784.49
2019-01-30T23:31:01.757Z,96785.89
2019-01-30T23:33:34.350Z,96784.91
2019-01-30T23:36:06.913Z,96787.67
2019-01-30T23:38:59.370Z,96782.94
2019-01-30T23:41:49.945Z,96776.87
2019-01-30T23:44:42.389Z,96778.28
2019-01-30T23:47:34.852Z,96770.63
2019-01-30T23:50:25.387Z,96769.75
2019-01-30T23:53:16.664Z,96766.92
2019-01-30T23:56:07.199Z,96762.67
2019-01-30T23:58:59.660Z,96763.67
